sensor_id;sensor_type;location;lat;lon;timestamp;P1;durP1;ratioP1;P2;durP2;ratioP2
54452;SDS011;40363;52.270;10.546;2023-04-25T00:01:49;9.48;;;3.03;;
54452;SDS011;40363;52.270;10.546;2023-04-25T00:04:17;4.75;;;2.80;;
54452;SDS011;40363;52.270;10.546;2023-04-25T00:06:44;6.47;;;2.72;;
54452;SDS011;40363;52.270;10.546;2023-04-25T00:09:12;7.40;;;2.92;;
54452;SDS011;40363;52.270;10.546;2023-04-25T00:11:39;11.23;;;3.33;;
54452;SDS011;40363;52.270;10.546;2023-04-25T00:14:06;11.30;;;3.97;;
54452;SDS011;40363;52.270;10.546;2023-04-25T00:16:33;7.10;;;2.50;;
54452;SDS011;40363;52.270;10.546;2023-04-25T00:19:00;5.32;;;2.55;;
54452;SDS011;40363;52.270;10.546;2023-04-25T00:21:28;6.38;;;2.67;;
54452;SDS011;40363;52.270;10.546;2023-04-25T00:23:56;6.13;;;2.35;;
54452;SDS011;40363;52.270;10.546;2023-04-25T00:26:24;7.15;;;3.15;;
54452;SDS011;40363;52.270;10.546;2023-04-25T00:28:51;10.70;;;3.28;;
54452;SDS011;40363;52.270;10.546;2023-04-25T00:31:18;9.82;;;3.33;;
54452;SDS011;40363;52.270;10.546;2023-04-25T00:33:44;10.25;;;3.30;;
54452;SDS011;40363;52.270;10.546;2023-04-25T00:36:11;6.13;;;3.20;;
54452;SDS011;40363;52.270;10.546;2023-04-25T00:38:37;7.25;;;2.85;;
54452;SDS011;40363;52.270;10.546;2023-04-25T00:41:04;7.85;;;3.33;;
54452;SDS011;40363;52.270;10.546;2023-04-25T00:43:33;13.25;;;3.67;;
54452;SDS011;40363;52.270;10.546;2023-04-25T00:46:02;8.30;;;3.03;;
54452;SDS011;40363;52.270;10.546;2023-04-25T00:48:28;11.25;;;3.20;;
54452;SDS011;40363;52.270;10.546;2023-04-25T00:50:56;7.90;;;2.58;;
54452;SDS011;40363;52.270;10.546;2023-04-25T00:53:24;13.60;;;2.92;;
54452;SDS011;40363;52.270;10.546;2023-04-25T00:55:53;7.95;;;3.58;;
54452;SDS011;40363;52.270;10.546;2023-04-25T00:58:21;12.55;;;3.88;;
54452;SDS011;40363;52.270;10.546;2023-04-25T01:00:50;9.32;;;3.25;;
54452;SDS011;40363;52.270;10.546;2023-04-25T01:03:18;7.35;;;2.90;;
54452;SDS011;40363;52.270;10.546;2023-04-25T01:05:45;8.23;;;2.83;;
54452;SDS011;40363;52.270;10.546;2023-04-25T01:08:13;7.85;;;3.50;;
54452;SDS011;40363;52.270;10.546;2023-04-25T01:10:40;8.73;;;3.20;;
54452;SDS011;40363;52.270;10.546;2023-04-25T01:13:07;7.78;;;2.80;;
54452;SDS011;40363;52.270;10.546;2023-04-25T01:15:33;4.63;;;3.25;;
54452;SDS011;40363;52.270;10.546;2023-04-25T01:18:02;6.63;;;2.78;;
54452;SDS011;40363;52.270;10.546;2023-04-25T01:20:29;10.10;;;3.33;;
54452;SDS011;40363;52.270;10.546;2023-04-25T01:22:59;13.98;;;3.75;;
54452;SDS011;40363;52.270;10.546;2023-04-25T01:25:27;4.57;;;2.85;;
54452;SDS011;40363;52.270;10.546;2023-04-25T01:27:55;10.65;;;3.10;;
54452;SDS011;40363;52.270;10.546;2023-04-25T01:30:22;8.90;;;3.10;;
54452;SDS011;40363;52.270;10.546;2023-04-25T01:32:48;8.05;;;3.42;;
54452;SDS011;40363;52.270;10.546;2023-04-25T01:35:15;8.85;;;3.78;;
54452;SDS011;40363;52.270;10.546;2023-04-25T01:37:42;9.63;;;3.33;;
54452;SDS011;40363;52.270;10.546;2023-04-25T01:40:10;12.52;;;3.53;;
54452;SDS011;40363;52.270;10.546;2023-04-25T01:42:39;8.18;;;3.40;;
54452;SDS011;40363;52.270;10.546;2023-04-25T01:45:07;6.80;;;4.20;;
54452;SDS011;40363;52.270;10.546;2023-04-25T01:47:35;7.70;;;3.03;;
54452;SDS011;40363;52.270;10.546;2023-04-25T01:50:03;8.27;;;3.80;;
54452;SDS011;40363;52.270;10.546;2023-04-25T01:52:30;10.00;;;3.88;;
54452;SDS011;40363;52.270;10.546;2023-04-25T01:54:57;8.50;;;4.40;;
54452;SDS011;40363;52.270;10.546;2023-04-25T01:57:27;10.35;;;3.90;;
54452;SDS011;40363;52.270;10.546;2023-04-25T01:59:54;12.23;;;3.80;;
54452;SDS011;40363;52.270;10.546;2023-04-25T02:02:25;13.18;;;3.72;;
54452;SDS011;40363;52.270;10.546;2023-04-25T02:04:52;5.75;;;3.65;;
54452;SDS011;40363;52.270;10.546;2023-04-25T02:07:19;8.70;;;3.17;;
54452;SDS011;40363;52.270;10.546;2023-04-25T02:09:45;8.40;;;4.00;;
54452;SDS011;40363;52.270;10.546;2023-04-25T02:12:12;9.30;;;4.18;;
54452;SDS011;40363;52.270;10.546;2023-04-25T02:14:40;13.10;;;3.67;;
54452;SDS011;40363;52.270;10.546;2023-04-25T02:17:06;11.40;;;3.58;;
54452;SDS011;40363;52.270;10.546;2023-04-25T02:19:33;10.88;;;3.83;;
54452;SDS011;40363;52.270;10.546;2023-04-25T02:22:00;13.30;;;4.00;;
54452;SDS011;40363;52.270;10.546;2023-04-25T02:24:26;9.88;;;4.50;;
54452;SDS011;40363;52.270;10.546;2023-04-25T02:26:54;11.75;;;4.38;;
54452;SDS011;40363;52.270;10.546;2023-04-25T02:29:21;10.07;;;3.40;;
54452;SDS011;40363;52.270;10.546;2023-04-25T02:31:49;9.00;;;3.60;;
54452;SDS011;40363;52.270;10.546;2023-04-25T02:34:15;10.73;;;5.10;;
54452;SDS011;40363;52.270;10.546;2023-04-25T02:36:42;6.55;;;3.70;;
54452;SDS011;40363;52.270;10.546;2023-04-25T02:39:09;12.07;;;4.60;;
54452;SDS011;40363;52.270;10.546;2023-04-25T02:41:36;12.55;;;4.97;;
54452;SDS011;40363;52.270;10.546;2023-04-25T02:44:02;13.25;;;4.07;;
54452;SDS011;40363;52.270;10.546;2023-04-25T02:46:29;8.65;;;3.78;;
54452;SDS011;40363;52.270;10.546;2023-04-25T02:48:57;8.43;;;3.63;;
54452;SDS011;40363;52.270;10.546;2023-04-25T02:51:23;7.90;;;3.70;;
54452;SDS011;40363;52.270;10.546;2023-04-25T02:53:50;9.82;;;4.40;;
54452;SDS011;40363;52.270;10.546;2023-04-25T02:56:16;9.18;;;4.57;;
54452;SDS011;40363;52.270;10.546;2023-04-25T02:58:43;10.18;;;4.68;;
54452;SDS011;40363;52.270;10.546;2023-04-25T03:01:10;12.20;;;5.07;;
54452;SDS011;40363;52.270;10.546;2023-04-25T03:03:36;9.55;;;4.22;;
54452;SDS011;40363;52.270;10.546;2023-04-25T03:06:04;9.20;;;4.25;;
54452;SDS011;40363;52.270;10.546;2023-04-25T03:08:31;8.48;;;4.78;;
54452;SDS011;40363;52.270;10.546;2023-04-25T03:10:59;10.85;;;4.97;;
54452;SDS011;40363;52.270;10.546;2023-04-25T03:13:26;14.82;;;5.15;;
54452;SDS011;40363;52.270;10.546;2023-04-25T03:15:54;11.02;;;4.60;;
54452;SDS011;40363;52.270;10.546;2023-04-25T03:18:21;14.77;;;5.10;;
54452;SDS011;40363;52.270;10.546;2023-04-25T03:20:47;8.95;;;4.85;;
54452;SDS011;40363;52.270;10.546;2023-04-25T03:23:15;6.80;;;4.70;;
54452;SDS011;40363;52.270;10.546;2023-04-25T03:25:42;10.75;;;5.43;;
54452;SDS011;40363;52.270;10.546;2023-04-25T03:28:08;11.15;;;5.68;;
54452;SDS011;40363;52.270;10.546;2023-04-25T03:30:35;9.98;;;4.70;;
54452;SDS011;40363;52.270;10.546;2023-04-25T03:33:02;7.93;;;4.72;;
54452;SDS011;40363;52.270;10.546;2023-04-25T03:35:28;11.80;;;5.38;;
54452;SDS011;40363;52.270;10.546;2023-04-25T03:37:55;11.82;;;4.45;;
54452;SDS011;40363;52.270;10.546;2023-04-25T03:40:23;11.40;;;4.85;;
54452;SDS011;40363;52.270;10.546;2023-04-25T03:42:50;17.83;;;5.20;;
54452;SDS011;40363;52.270;10.546;2023-04-25T03:45:16;11.00;;;5.80;;
54452;SDS011;40363;52.270;10.546;2023-04-25T03:47:43;13.50;;;5.20;;
54452;SDS011;40363;52.270;10.546;2023-04-25T03:50:09;9.88;;;5.18;;
54452;SDS011;40363;52.270;10.546;2023-04-25T03:52:36;9.35;;;3.83;;
54452;SDS011;40363;52.270;10.546;2023-04-25T03:55:03;9.55;;;4.57;;
54452;SDS011;40363;52.270;10.546;2023-04-25T03:57:32;7.68;;;3.75;;
54452;SDS011;40363;52.270;10.546;2023-04-25T03:59:58;12.55;;;4.85;;
54452;SDS011;40363;52.270;10.546;2023-04-25T04:02:25;10.35;;;3.70;;
54452;SDS011;40363;52.270;10.546;2023-04-25T04:04:51;9.38;;;4.25;;
54452;SDS011;40363;52.270;10.546;2023-04-25T04:07:18;11.65;;;3.60;;
54452;SDS011;40363;52.270;10.546;2023-04-25T04:09:44;11.45;;;3.28;;
54452;SDS011;40363;52.270;10.546;2023-04-25T04:12:11;9.43;;;3.15;;
54452;SDS011;40363;52.270;10.546;2023-04-25T04:14:39;9.43;;;2.85;;
54452;SDS011;40363;52.270;10.546;2023-04-25T04:17:06;5.95;;;2.67;;
54452;SDS011;40363;52.270;10.546;2023-04-25T04:19:33;4.47;;;2.55;;
54452;SDS011;40363;52.270;10.546;2023-04-25T04:21:59;8.68;;;2.70;;
54452;SDS011;40363;52.270;10.546;2023-04-25T04:24:26;14.27;;;3.53;;
54452;SDS011;40363;52.270;10.546;2023-04-25T04:26:52;14.90;;;3.08;;
54452;SDS011;40363;52.270;10.546;2023-04-25T04:29:19;11.27;;;3.08;;
54452;SDS011;40363;52.270;10.546;2023-04-25T04:31:48;14.48;;;2.65;;
54452;SDS011;40363;52.270;10.546;2023-04-25T04:34:15;14.90;;;3.53;;
54452;SDS011;40363;52.270;10.546;2023-04-25T04:36:42;11.15;;;2.72;;
54452;SDS011;40363;52.270;10.546;2023-04-25T04:39:10;13.68;;;3.33;;
54452;SDS011;40363;52.270;10.546;2023-04-25T04:41:36;10.10;;;4.20;;
54452;SDS011;40363;52.270;10.546;2023-04-25T04:44:03;11.68;;;2.95;;
54452;SDS011;40363;52.270;10.546;2023-04-25T04:46:31;8.45;;;3.08;;
54452;SDS011;40363;52.270;10.546;2023-04-25T04:49:03;11.82;;;3.03;;
54452;SDS011;40363;52.270;10.546;2023-04-25T04:51:30;10.10;;;3.50;;
54452;SDS011;40363;52.270;10.546;2023-04-25T04:53:58;10.25;;;3.47;;
54452;SDS011;40363;52.270;10.546;2023-04-25T04:56:27;12.27;;;2.63;;
54452;SDS011;40363;52.270;10.546;2023-04-25T04:58:54;10.43;;;4.07;;
54452;SDS011;40363;52.270;10.546;2023-04-25T05:01:21;12.93;;;3.03;;
54452;SDS011;40363;52.270;10.546;2023-04-25T05:03:48;8.60;;;3.42;;
54452;SDS011;40363;52.270;10.546;2023-04-25T05:06:15;12.05;;;3.05;;
54452;SDS011;40363;52.270;10.546;2023-04-25T05:08:42;9.30;;;2.83;;
54452;SDS011;40363;52.270;10.546;2023-04-25T05:11:09;11.52;;;3.40;;
54452;SDS011;40363;52.270;10.546;2023-04-25T05:13:36;10.65;;;3.58;;
54452;SDS011;40363;52.270;10.546;2023-04-25T05:16:02;17.20;;;4.78;;
54452;SDS011;40363;52.270;10.546;2023-04-25T05:18:29;8.43;;;3.38;;
54452;SDS011;40363;52.270;10.546;2023-04-25T05:20:56;11.80;;;3.42;;
54452;SDS011;40363;52.270;10.546;2023-04-25T05:23:24;8.07;;;2.72;;
54452;SDS011;40363;52.270;10.546;2023-04-25T05:25:52;19.58;;;3.30;;
54452;SDS011;40363;52.270;10.546;2023-04-25T05:28:19;8.30;;;3.40;;
54452;SDS011;40363;52.270;10.546;2023-04-25T05:30:46;13.00;;;3.20;;
54452;SDS011;40363;52.270;10.546;2023-04-25T05:33:12;12.90;;;3.40;;
54452;SDS011;40363;52.270;10.546;2023-04-25T05:35:39;14.13;;;3.00;;
54452;SDS011;40363;52.270;10.546;2023-04-25T05:38:06;6.60;;;2.20;;
54452;SDS011;40363;52.270;10.546;2023-04-25T05:40:34;17.10;;;4.70;;
54452;SDS011;40363;52.270;10.546;2023-04-25T05:43:00;12.50;;;3.60;;
54452;SDS011;40363;52.270;10.546;2023-04-25T05:45:27;15.10;;;2.78;;
54452;SDS011;40363;52.270;10.546;2023-04-25T05:47:54;16.05;;;3.67;;
54452;SDS011;40363;52.270;10.546;2023-04-25T05:50:21;20.52;;;2.92;;
54452;SDS011;40363;52.270;10.546;2023-04-25T05:52:47;10.88;;;2.60;;
54452;SDS011;40363;52.270;10.546;2023-04-25T05:55:14;8.38;;;2.65;;
54452;SDS011;40363;52.270;10.546;2023-04-25T05:57:42;9.52;;;2.92;;
54452;SDS011;40363;52.270;10.546;2023-04-25T06:00:11;7.32;;;2.33;;
54452;SDS011;40363;52.270;10.546;2023-04-25T06:02:40;9.40;;;2.80;;
54452;SDS011;40363;52.270;10.546;2023-04-25T06:05:07;13.93;;;2.90;;
54452;SDS011;40363;52.270;10.546;2023-04-25T06:07:34;12.85;;;3.45;;
54452;SDS011;40363;52.270;10.546;2023-04-25T06:10:01;14.93;;;3.08;;
54452;SDS011;40363;52.270;10.546;2023-04-25T06:12:28;11.63;;;2.70;;
54452;SDS011;40363;52.270;10.546;2023-04-25T06:14:56;11.38;;;2.97;;
54452;SDS011;40363;52.270;10.546;2023-04-25T06:17:23;10.32;;;3.00;;
54452;SDS011;40363;52.270;10.546;2023-04-25T06:19:50;11.32;;;2.53;;
54452;SDS011;40363;52.270;10.546;2023-04-25T06:22:16;8.57;;;3.50;;
54452;SDS011;40363;52.270;10.546;2023-04-25T06:24:43;12.60;;;2.70;;
54452;SDS011;40363;52.270;10.546;2023-04-25T06:27:10;11.40;;;2.72;;
54452;SDS011;40363;52.270;10.546;2023-04-25T06:29:37;6.63;;;2.05;;
54452;SDS011;40363;52.270;10.546;2023-04-25T06:32:05;17.55;;;2.85;;
54452;SDS011;40363;52.270;10.546;2023-04-25T06:34:32;8.18;;;2.00;;
54452;SDS011;40363;52.270;10.546;2023-04-25T06:36:58;6.18;;;2.60;;
54452;SDS011;40363;52.270;10.546;2023-04-25T06:39:25;9.15;;;2.63;;
54452;SDS011;40363;52.270;10.546;2023-04-25T06:41:51;9.45;;;2.28;;
54452;SDS011;40363;52.270;10.546;2023-04-25T06:44:18;11.38;;;3.03;;
54452;SDS011;40363;52.270;10.546;2023-04-25T06:46:46;14.25;;;3.85;;
54452;SDS011;40363;52.270;10.546;2023-04-25T06:49:14;15.27;;;2.72;;
54452;SDS011;40363;52.270;10.546;2023-04-25T06:51:40;9.23;;;2.15;;
54452;SDS011;40363;52.270;10.546;2023-04-25T06:54:07;7.53;;;2.30;;
54452;SDS011;40363;52.270;10.546;2023-04-25T06:56:33;11.77;;;2.83;;
54452;SDS011;40363;52.270;10.546;2023-04-25T06:59:00;11.07;;;2.75;;
54452;SDS011;40363;52.270;10.546;2023-04-25T07:01:26;10.65;;;3.10;;
54452;SDS011;40363;52.270;10.546;2023-04-25T07:03:53;12.20;;;2.97;;
54452;SDS011;40363;52.270;10.546;2023-04-25T07:06:21;10.23;;;2.35;;
54452;SDS011;40363;52.270;10.546;2023-04-25T07:08:47;9.07;;;2.40;;
54452;SDS011;40363;52.270;10.546;2023-04-25T07:11:14;11.02;;;2.80;;
54452;SDS011;40363;52.270;10.546;2023-04-25T07:13:40;14.13;;;2.17;;
54452;SDS011;40363;52.270;10.546;2023-04-25T07:16:09;13.10;;;1.90;;
54452;SDS011;40363;52.270;10.546;2023-04-25T07:18:36;8.18;;;2.35;;
54452;SDS011;40363;52.270;10.546;2023-04-25T07:21:03;6.05;;;2.10;;
54452;SDS011;40363;52.270;10.546;2023-04-25T07:23:31;5.28;;;1.48;;
54452;SDS011;40363;52.270;10.546;2023-04-25T07:25:57;8.40;;;2.45;;
54452;SDS011;40363;52.270;10.546;2023-04-25T07:28:24;6.50;;;1.98;;
54452;SDS011;40363;52.270;10.546;2023-04-25T07:30:51;5.20;;;1.48;;
54452;SDS011;40363;52.270;10.546;2023-04-25T07:33:17;4.82;;;1.70;;
54452;SDS011;40363;52.270;10.546;2023-04-25T07:35:45;9.50;;;1.73;;
54452;SDS011;40363;52.270;10.546;2023-04-25T07:38:11;7.97;;;1.52;;
54452;SDS011;40363;52.270;10.546;2023-04-25T07:40:39;6.68;;;1.38;;
54452;SDS011;40363;52.270;10.546;2023-04-25T07:43:06;4.43;;;1.30;;
54452;SDS011;40363;52.270;10.546;2023-04-25T07:45:33;6.30;;;1.45;;
54452;SDS011;40363;52.270;10.546;2023-04-25T07:47:59;3.88;;;1.45;;
54452;SDS011;40363;52.270;10.546;2023-04-25T07:50:26;5.88;;;1.60;;
54452;SDS011;40363;52.270;10.546;2023-04-25T07:52:52;4.60;;;1.60;;
54452;SDS011;40363;52.270;10.546;2023-04-25T07:55:19;4.88;;;2.17;;
54452;SDS011;40363;52.270;10.546;2023-04-25T07:57:47;6.50;;;1.85;;
54452;SDS011;40363;52.270;10.546;2023-04-25T08:00:14;6.85;;;1.58;;
54452;SDS011;40363;52.270;10.546;2023-04-25T08:02:41;5.97;;;1.73;;
54452;SDS011;40363;52.270;10.546;2023-04-25T08:05:07;6.13;;;1.80;;
54452;SDS011;40363;52.270;10.546;2023-04-25T08:07:36;4.50;;;0.90;;
54452;SDS011;40363;52.270;10.546;2023-04-25T08:10:03;7.00;;;1.70;;
54452;SDS011;40363;52.270;10.546;2023-04-25T08:12:31;5.95;;;1.30;;
54452;SDS011;40363;52.270;10.546;2023-04-25T08:14:59;6.78;;;1.35;;
54452;SDS011;40363;52.270;10.546;2023-04-25T08:17:26;5.78;;;1.52;;
54452;SDS011;40363;52.270;10.546;2023-04-25T08:19:52;4.65;;;1.88;;
54452;SDS011;40363;52.270;10.546;2023-04-25T08:22:19;7.95;;;2.05;;
54452;SDS011;40363;52.270;10.546;2023-04-25T08:24:45;8.43;;;2.13;;
54452;SDS011;40363;52.270;10.546;2023-04-25T08:27:12;6.72;;;2.05;;
54452;SDS011;40363;52.270;10.546;2023-04-25T08:29:38;9.18;;;1.83;;
54452;SDS011;40363;52.270;10.546;2023-04-25T08:32:06;9.52;;;1.60;;
54452;SDS011;40363;52.270;10.546;2023-04-25T08:34:33;6.03;;;1.85;;
54452;SDS011;40363;52.270;10.546;2023-04-25T08:37:01;6.68;;;1.77;;
54452;SDS011;40363;52.270;10.546;2023-04-25T08:39:29;6.68;;;1.80;;
54452;SDS011;40363;52.270;10.546;2023-04-25T08:41:56;5.55;;;2.13;;
54452;SDS011;40363;52.270;10.546;2023-04-25T08:44:22;6.90;;;2.58;;
54452;SDS011;40363;52.270;10.546;2023-04-25T08:46:50;10.60;;;3.10;;
54452;SDS011;40363;52.270;10.546;2023-04-25T08:49:20;6.68;;;2.50;;
54452;SDS011;40363;52.270;10.546;2023-04-25T08:51:47;11.63;;;2.70;;
54452;SDS011;40363;52.270;10.546;2023-04-25T08:54:15;11.57;;;3.20;;
54452;SDS011;40363;52.270;10.546;2023-04-25T08:56:43;13.23;;;3.35;;
54452;SDS011;40363;52.270;10.546;2023-04-25T08:59:11;8.45;;;2.20;;
54452;SDS011;40363;52.270;10.546;2023-04-25T09:01:38;6.47;;;2.70;;
54452;SDS011;40363;52.270;10.546;2023-04-25T09:04:05;5.97;;;2.10;;
54452;SDS011;40363;52.270;10.546;2023-04-25T09:06:33;5.65;;;1.60;;
54452;SDS011;40363;52.270;10.546;2023-04-25T09:09:01;7.60;;;1.85;;
54452;SDS011;40363;52.270;10.546;2023-04-25T09:11:30;7.80;;;1.48;;
54452;SDS011;40363;52.270;10.546;2023-04-25T09:14:09;9.48;;;2.03;;
54452;SDS011;40363;52.270;10.546;2023-04-25T09:16:49;3.35;;;1.20;;
54452;SDS011;40363;52.270;10.546;2023-04-25T09:19:24;4.43;;;1.50;;
54452;SDS011;40363;52.270;10.546;2023-04-25T09:21:54;5.45;;;1.80;;
54452;SDS011;40363;52.270;10.546;2023-04-25T09:24:29;4.57;;;1.40;;
54452;SDS011;40363;52.270;10.546;2023-04-25T09:27:02;3.72;;;1.20;;
54452;SDS011;40363;52.270;10.546;2023-04-25T09:29:29;4.18;;;1.20;;
54452;SDS011;40363;52.270;10.546;2023-04-25T09:32:10;4.72;;;1.13;;
54452;SDS011;40363;52.270;10.546;2023-04-25T09:34:38;8.25;;;2.58;;
54452;SDS011;40363;52.270;10.546;2023-04-25T09:37:07;4.68;;;1.25;;
54452;SDS011;40363;52.270;10.546;2023-04-25T09:39:35;5.50;;;1.50;;
54452;SDS011;40363;52.270;10.546;2023-04-25T09:42:02;5.25;;;1.30;;
54452;SDS011;40363;52.270;10.546;2023-04-25T09:44:29;8.38;;;1.73;;
54452;SDS011;40363;52.270;10.546;2023-04-25T09:46:56;5.50;;;1.40;;
54452;SDS011;40363;52.270;10.546;2023-04-25T09:49:24;3.88;;;1.63;;
54452;SDS011;40363;52.270;10.546;2023-04-25T09:51:54;11.63;;;1.90;;
54452;SDS011;40363;52.270;10.546;2023-04-25T09:54:24;7.57;;;1.50;;
54452;SDS011;40363;52.270;10.546;2023-04-25T09:56:51;8.45;;;1.50;;
54452;SDS011;40363;52.270;10.546;2023-04-25T09:59:19;5.70;;;1.23;;
54452;SDS011;40363;52.270;10.546;2023-04-25T10:01:47;6.75;;;1.52;;
54452;SDS011;40363;52.270;10.546;2023-04-25T10:04:16;3.72;;;1.38;;
54452;SDS011;40363;52.270;10.546;2023-04-25T10:06:45;5.20;;;1.67;;
54452;SDS011;40363;52.270;10.546;2023-04-25T10:09:14;4.35;;;1.50;;
54452;SDS011;40363;52.270;10.546;2023-04-25T10:11:44;3.65;;;1.20;;
54452;SDS011;40363;52.270;10.546;2023-04-25T10:14:12;8.98;;;1.60;;
54452;SDS011;40363;52.270;10.546;2023-04-25T10:16:41;5.72;;;1.70;;
54452;SDS011;40363;52.270;10.546;2023-04-25T10:19:09;6.10;;;1.58;;
54452;SDS011;40363;52.270;10.546;2023-04-25T10:21:36;8.25;;;2.30;;
54452;SDS011;40363;52.270;10.546;2023-04-25T10:24:10;2.10;;;0.95;;
54452;SDS011;40363;52.270;10.546;2023-04-25T10:26:37;7.35;;;1.83;;
54452;SDS011;40363;52.270;10.546;2023-04-25T10:29:06;6.32;;;1.95;;
54452;SDS011;40363;52.270;10.546;2023-04-25T10:31:33;6.95;;;1.95;;
54452;SDS011;40363;52.270;10.546;2023-04-25T10:34:00;6.85;;;1.52;;
54452;SDS011;40363;52.270;10.546;2023-04-25T10:36:26;3.75;;;1.80;;
54452;SDS011;40363;52.270;10.546;2023-04-25T10:38:58;4.88;;;1.33;;
54452;SDS011;40363;52.270;10.546;2023-04-25T10:41:31;4.55;;;1.58;;
54452;SDS011;40363;52.270;10.546;2023-04-25T10:44:12;5.85;;;1.63;;
54452;SDS011;40363;52.270;10.546;2023-04-25T10:46:40;4.38;;;1.77;;
54452;SDS011;40363;52.270;10.546;2023-04-25T10:49:07;8.63;;;1.88;;
54452;SDS011;40363;52.270;10.546;2023-04-25T10:51:35;6.30;;;2.25;;
54452;SDS011;40363;52.270;10.546;2023-04-25T10:54:03;4.53;;;1.27;;
54452;SDS011;40363;52.270;10.546;2023-04-25T10:56:32;5.00;;;1.25;;
54452;SDS011;40363;52.270;10.546;2023-04-25T10:59:07;2.97;;;1.33;;
54452;SDS011;40363;52.270;10.546;2023-04-25T11:01:38;3.28;;;1.45;;
54452;SDS011;40363;52.270;10.546;2023-04-25T11:04:05;3.85;;;1.27;;
54452;SDS011;40363;52.270;10.546;2023-04-25T11:06:35;3.35;;;1.17;;
54452;SDS011;40363;52.270;10.546;2023-04-25T11:09:19;1.65;;;1.00;;
54452;SDS011;40363;52.270;10.546;2023-04-25T11:11:53;3.70;;;1.10;;
54452;SDS011;40363;52.270;10.546;2023-04-25T11:14:20;1.23;;;1.08;;
54452;SDS011;40363;52.270;10.546;2023-04-25T11:16:48;4.07;;;1.60;;
54452;SDS011;40363;52.270;10.546;2023-04-25T11:19:19;3.92;;;1.00;;
54452;SDS011;40363;52.270;10.546;2023-04-25T11:21:46;3.50;;;1.20;;
54452;SDS011;40363;52.270;10.546;2023-04-25T11:24:13;1.80;;;1.00;;
54452;SDS011;40363;52.270;10.546;2023-04-25T11:26:41;3.85;;;1.08;;
54452;SDS011;40363;52.270;10.546;2023-04-25T11:29:07;5.35;;;1.05;;
54452;SDS011;40363;52.270;10.546;2023-04-25T11:31:34;5.30;;;1.13;;
54452;SDS011;40363;52.270;10.546;2023-04-25T11:34:02;3.17;;;0.85;;
54452;SDS011;40363;52.270;10.546;2023-04-25T11:36:29;2.22;;;0.95;;
54452;SDS011;40363;52.270;10.546;2023-04-25T11:38:55;4.55;;;1.10;;
54452;SDS011;40363;52.270;10.546;2023-04-25T11:41:22;6.22;;;1.48;;
54452;SDS011;40363;52.270;10.546;2023-04-25T11:43:49;10.30;;;1.13;;
54452;SDS011;40363;52.270;10.546;2023-04-25T11:46:17;3.95;;;1.02;;
54452;SDS011;40363;52.270;10.546;2023-04-25T11:48:45;2.67;;;0.90;;
54452;SDS011;40363;52.270;10.546;2023-04-25T11:51:14;6.03;;;1.08;;
54452;SDS011;40363;52.270;10.546;2023-04-25T11:53:40;8.20;;;1.58;;
54452;SDS011;40363;52.270;10.546;2023-04-25T11:56:08;6.97;;;1.20;;
54452;SDS011;40363;52.270;10.546;2023-04-25T12:01:24;6.35;;;1.67;;
54452;SDS011;40363;52.270;10.546;2023-04-25T12:03:52;2.22;;;0.80;;
54452;SDS011;40363;52.270;10.546;2023-04-25T12:06:20;3.90;;;1.20;;
54452;SDS011;40363;52.270;10.546;2023-04-25T12:09:00;2.65;;;1.13;;
54452;SDS011;40363;52.270;10.546;2023-04-25T12:11:29;5.13;;;1.55;;
54452;SDS011;40363;52.270;10.546;2023-04-25T12:14:01;4.40;;;1.10;;
54452;SDS011;40363;52.270;10.546;2023-04-25T12:16:28;4.70;;;1.10;;
54452;SDS011;40363;52.270;10.546;2023-04-25T12:18:55;4.00;;;1.15;;
54452;SDS011;40363;52.270;10.546;2023-04-25T12:21:23;4.07;;;1.75;;
54452;SDS011;40363;52.270;10.546;2023-04-25T12:23:56;2.65;;;1.00;;
54452;SDS011;40363;52.270;10.546;2023-04-25T12:26:45;3.10;;;1.25;;
54452;SDS011;40363;52.270;10.546;2023-04-25T12:29:15;3.17;;;1.00;;
54452;SDS011;40363;52.270;10.546;2023-04-25T12:31:42;3.08;;;1.38;;
54452;SDS011;40363;52.270;10.546;2023-04-25T12:34:09;7.18;;;1.30;;
54452;SDS011;40363;52.270;10.546;2023-04-25T12:36:37;2.05;;;0.90;;
54452;SDS011;40363;52.270;10.546;2023-04-25T12:39:03;2.85;;;1.30;;
54452;SDS011;40363;52.270;10.546;2023-04-25T12:41:30;3.58;;;1.00;;
54452;SDS011;40363;52.270;10.546;2023-04-25T12:43:57;3.08;;;0.90;;
54452;SDS011;40363;52.270;10.546;2023-04-25T12:46:23;3.92;;;0.82;;
54452;SDS011;40363;52.270;10.546;2023-04-25T12:48:50;4.25;;;0.75;;
54452;SDS011;40363;52.270;10.546;2023-04-25T12:51:17;2.95;;;1.33;;
54452;SDS011;40363;52.270;10.546;2023-04-25T12:53:45;3.38;;;1.08;;
54452;SDS011;40363;52.270;10.546;2023-04-25T12:56:11;5.60;;;0.90;;
54452;SDS011;40363;52.270;10.546;2023-04-25T12:58:38;5.97;;;0.88;;
54452;SDS011;40363;52.270;10.546;2023-04-25T13:01:05;2.15;;;0.60;;
54452;SDS011;40363;52.270;10.546;2023-04-25T13:03:32;2.05;;;0.90;;
54452;SDS011;40363;52.270;10.546;2023-04-25T13:05:59;4.22;;;0.95;;
54452;SDS011;40363;52.270;10.546;2023-04-25T13:08:29;2.65;;;1.02;;
54452;SDS011;40363;52.270;10.546;2023-04-25T13:10:57;0.65;;;0.60;;
54452;SDS011;40363;52.270;10.546;2023-04-25T13:13:25;2.80;;;0.80;;
54452;SDS011;40363;52.270;10.546;2023-04-25T13:15:52;4.50;;;1.30;;
54452;SDS011;40363;52.270;10.546;2023-04-25T13:18:18;3.45;;;1.23;;
54452;SDS011;40363;52.270;10.546;2023-04-25T13:20:45;1.60;;;0.77;;
54452;SDS011;40363;52.270;10.546;2023-04-25T13:23:12;5.28;;;0.98;;
54452;SDS011;40363;52.270;10.546;2023-04-25T13:25:39;2.17;;;0.90;;
54452;SDS011;40363;52.270;10.546;2023-04-25T13:28:07;4.25;;;2.17;;
54452;SDS011;40363;52.270;10.546;2023-04-25T13:30:33;5.25;;;1.50;;
54452;SDS011;40363;52.270;10.546;2023-04-25T13:33:00;4.53;;;1.15;;
54452;SDS011;40363;52.270;10.546;2023-04-25T13:35:28;1.92;;;1.13;;
54452;SDS011;40363;52.270;10.546;2023-04-25T13:37:55;2.72;;;1.25;;
54452;SDS011;40363;52.270;10.546;2023-04-25T13:40:22;2.97;;;1.40;;
54452;SDS011;40363;52.270;10.546;2023-04-25T13:42:48;2.55;;;1.00;;
54452;SDS011;40363;52.270;10.546;2023-04-25T13:45:17;5.80;;;1.38;;
54452;SDS011;40363;52.270;10.546;2023-04-25T13:47:44;4.88;;;1.08;;
54452;SDS011;40363;52.270;10.546;2023-04-25T13:50:10;3.55;;;0.80;;
54452;SDS011;40363;52.270;10.546;2023-04-25T13:52:39;1.98;;;0.80;;
54452;SDS011;40363;52.270;10.546;2023-04-25T13:55:06;3.00;;;0.98;;
54452;SDS011;40363;52.270;10.546;2023-04-25T13:57:33;3.53;;;1.27;;
54452;SDS011;40363;52.270;10.546;2023-04-25T14:00:00;2.60;;;0.65;;
54452;SDS011;40363;52.270;10.546;2023-04-25T14:02:31;2.13;;;0.98;;
54452;SDS011;40363;52.270;10.546;2023-04-25T14:04:58;2.05;;;0.50;;
54452;SDS011;40363;52.270;10.546;2023-04-25T14:07:28;1.60;;;0.60;;
54452;SDS011;40363;52.270;10.546;2023-04-25T14:09:55;2.35;;;0.57;;
54452;SDS011;40363;52.270;10.546;2023-04-25T14:12:22;2.63;;;0.77;;
54452;SDS011;40363;52.270;10.546;2023-04-25T14:14:48;1.42;;;0.57;;
54452;SDS011;40363;52.270;10.546;2023-04-25T14:17:15;1.80;;;0.60;;
54452;SDS011;40363;52.270;10.546;2023-04-25T14:19:43;1.38;;;0.52;;
54452;SDS011;40363;52.270;10.546;2023-04-25T14:22:10;3.40;;;1.38;;
54452;SDS011;40363;52.270;10.546;2023-04-25T14:24:37;2.92;;;0.75;;
54452;SDS011;40363;52.270;10.546;2023-04-25T14:27:04;1.35;;;0.60;;
54452;SDS011;40363;52.270;10.546;2023-04-25T14:29:30;2.30;;;0.70;;
54452;SDS011;40363;52.270;10.546;2023-04-25T14:31:57;4.43;;;0.75;;
54452;SDS011;40363;52.270;10.546;2023-04-25T14:34:24;4.10;;;0.73;;
54452;SDS011;40363;52.270;10.546;2023-04-25T14:36:53;2.03;;;0.70;;